createdAt,value
2024-02-19T00:00:00.624Z,0.9
2024-02-19T00:15:00.670Z,0.85
2024-02-19T00:30:00.642Z,1.0
2024-02-19T00:45:00.626Z,0.85
2024-02-19T01:00:00.686Z,0.7
2024-02-19T01:15:00.694Z,0.4
2024-02-19T01:30:00.643Z,0.25
2024-02-19T01:45:00.682Z,0.35
2024-02-19T02:00:00.599Z,0.2
2024-02-19T02:15:00.678Z,0.05
2024-02-19T02:30:00.664Z,0.3
2024-02-19T02:45:00.624Z,0.45
2024-02-19T03:00:00.622Z,0.5
2024-02-19T03:15:00.700Z,0.7
2024-02-19T03:30:00.615Z,0.55
2024-02-19T03:45:00.630Z,0.65
2024-02-19T04:00:00.655Z,1.05
2024-02-19T04:15:00.688Z,1.4
2024-02-19T04:30:00.623Z,1.5
2024-02-19T04:45:00.619Z,1.75
2024-02-19T05:00:00.630Z,1.95
2024-02-19T05:15:00.667Z,2.05
2024-02-19T05:30:00.684Z,2.2
2024-02-19T05:45:00.615Z,2.35
2024-02-19T06:00:00.971Z,2.55
2024-02-19T06:15:00.882Z,2.75
2024-02-19T06:30:00.636Z,2.95
2024-02-19T06:45:00.732Z,3.1
2024-02-19T07:00:00.645Z,3.45
2024-02-19T07:15:00.621Z,3.8
2024-02-19T07:30:00.631Z,4.0
2024-02-19T07:45:00.812Z,4.4
2024-02-19T08:00:00.716Z,4.7
2024-02-19T08:15:00.644Z,5.05
2024-02-19T08:30:00.685Z,5.5
2024-02-19T08:45:00.614Z,6.0
2024-02-19T09:00:00.631Z,6.2
2024-02-19T09:15:00.658Z,6.65
2024-02-19T09:30:00.623Z,7.3
2024-02-19T09:45:00.635Z,8.05
2024-02-19T10:00:00.697Z,8.45
2024-02-19T10:15:00.642Z,8.95
2024-02-19T10:30:00.682Z,9.55
2024-02-19T10:45:00.661Z,10.15
2024-02-19T11:00:00.619Z,10.25
2024-02-19T11:15:00.593Z,10.95
2024-02-19T11:30:00.627Z,11.0
2024-02-19T11:45:00.712Z,11.15
2024-02-19T12:00:00.646Z,11.65
2024-02-19T12:15:00.637Z,12.25
2024-02-19T12:30:00.644Z,12.7
2024-02-19T12:45:00.651Z,13.65
2024-02-19T13:00:00.709Z,13.85
2024-02-19T13:15:00.620Z,14.2
2024-02-19T13:30:00.651Z,14.55
2024-02-19T13:45:00.636Z,14.25
2024-02-19T14:00:00.701Z,13.85
2024-02-19T14:15:02.276Z,13.5
2024-02-19T14:30:00.699Z,13.4
2024-02-19T14:45:00.649Z,13.0
2024-02-19T15:00:00.661Z,13.15
2024-02-19T15:15:00.641Z,12.7
2024-02-19T15:30:00.870Z,12.1
2024-02-19T15:45:00.628Z,11.85
2024-02-19T16:00:00.697Z,11.45
2024-02-19T16:15:00.633Z,10.75
2024-02-19T16:30:00.632Z,10.5
2024-02-19T16:45:00.693Z,10.25
2024-02-19T17:00:00.687Z,9.8
2024-02-19T17:15:00.606Z,10.0
2024-02-19T17:30:00.648Z,9.7
2024-02-19T17:45:01.105Z,9.5
2024-02-19T18:00:00.621Z,9.0
2024-02-19T18:15:00.667Z,8.7
2024-02-19T18:30:00.630Z,8.15
2024-02-19T18:45:00.617Z,7.7
2024-02-19T19:00:00.711Z,7.0
2024-02-19T19:15:00.633Z,7.1
2024-02-19T19:30:00.762Z,6.7
2024-02-19T19:45:00.641Z,5.75
2024-02-19T20:00:01.027Z,5.25
2024-02-19T20:15:00.827Z,4.7
2024-02-19T20:30:00.621Z,4.25
2024-02-19T20:45:00.677Z,3.85
2024-02-19T21:00:00.728Z,3.65
2024-02-19T21:15:00.661Z,3.1
2024-02-19T21:30:00.660Z,3.05
2024-02-19T21:45:00.683Z,2.7
2024-02-19T22:00:00.741Z,2.35
2024-02-19T22:15:00.697Z,2.15
2024-02-19T22:30:00.683Z,2.35
2024-02-19T22:45:00.629Z,2.1
2024-02-19T23:00:00.664Z,1.85
2024-02-19T23:15:00.629Z,1.95
2024-02-19T23:30:00.631Z,2.25
2024-02-19T23:45:00.655Z,2.35
